PWSweather.com
Personal Weather Stations
Station Observations
CARNOUSTIE
Pambride, CarnoustieGB DD7 6DY

PambrideCarnoustieGB DD7 6DY

Lat: 56.50889, Lon: -2.7051

Elevation: 105

Station Type: Oregon Scientific WMR200

www.carnoustieweather.co.uk

High Low Average
Temperature 59.4°F15.2°C 53.2°F11.8°C 56.9°F13.8°C
Dew Point 52.6°F11.4°C 46.6°F8.1°C 48.3°F9.1°C
Winds 17.3 mph 27.8 kmh Calm Calm 8.0 mph SW12.9 kmh SW
Wind Gusts 24.2 mph38.9 kmh -- 11.0 mph17.7 kmh
Humidity 84% 67% 73%
Pressure 29.77 in1008.1 mb 29.65 in1004.1 mb -
Precipitation 0.17 in4.3 mm - -
Hour Temp Dew Point Humidity Winds Wind Gusts Pressure Precip Precip Rate Daily Precip Total
12:00 AM 56.8°F13.8°C 46.8°F8.2°C 69% 10.4 mph SW16.7 kmh SW 16.1 mph25.9 kmh 29.68 in1005.1 mb - 0.00 in0.0 mm 0.00 in0.0 mm
12:10 AM 56.8°F13.8°C 46.8°F8.2°C 69% 13.8 mph W22.2 kmh W 17.3 mph27.8 kmh 29.68 in1005.1 mb - 0.00 in0.0 mm 0.00 in0.0 mm
12:15 AM 56.8°F13.8°C 46.8°F8.2°C 69% 8.1 mph SW13.0 kmh SW 13.8 mph22.2 kmh 29.68 in1005.1 mb - 0.00 in0.0 mm 0.00 in0.0 mm
12:20 AM 56.7°F13.7°C 46.6°F8.1°C 69% 9.2 mph WSW14.8 kmh WSW 11.5 mph18.5 kmh 29.68 in1005.1 mb - 0.00 in0.0 mm 0.00 in0.0 mm
12:25 AM 56.7°F13.7°C 47.0°F8.3°C 70% 9.2 mph SSW14.8 kmh SSW 11.5 mph18.5 kmh 29.68 in1005.1 mb - 0.00 in0.0 mm 0.00 in0.0 mm
12:30 AM 56.7°F13.7°C 47.0°F8.3°C 70% 6.9 mph WSW11.1 kmh WSW 9.2 mph14.8 kmh 29.68 in1005.1 mb - 0.00 in0.0 mm 0.00 in0.0 mm
12:35 AM 56.7°F13.7°C 47.0°F8.3°C 70% 9.2 mph WSW14.8 kmh WSW 10.4 mph16.7 kmh 29.68 in1005.1 mb - 0.00 in0.0 mm 0.00 in0.0 mm
12:40 AM 56.7°F13.7°C 47.0°F8.3°C 70% 6.9 mph WSW11.1 kmh WSW 9.2 mph14.8 kmh 29.68 in1005.1 mb - 0.00 in0.0 mm 0.00 in0.0 mm
12:45 AM 56.7°F13.7°C 47.0°F8.3°C 70% 8.1 mph WSW13.0 kmh WSW 13.8 mph22.2 kmh 29.68 in1005.1 mb - 0.00 in0.0 mm 0.00 in0.0 mm
12:50 AM 56.7°F13.7°C 47.0°F8.3°C 70% 11.5 mph SW18.5 kmh SW 16.1 mph25.9 kmh 29.68 in1005.1 mb - 0.00 in0.0 mm 0.00 in0.0 mm
12:55 AM 56.7°F13.7°C 47.0°F8.3°C 70% 9.2 mph WSW14.8 kmh WSW 12.7 mph20.4 kmh 29.65 in1004.1 mb - 0.00 in0.0 mm 0.00 in0.0 mm
01:00 AM 56.7°F13.7°C 47.0°F8.3°C 70% 10.4 mph W16.7 kmh W 16.1 mph25.9 kmh 29.65 in1004.1 mb - 0.00 in0.0 mm 0.00 in0.0 mm
01:10 AM 56.7°F13.7°C 47.0°F8.3°C 70% 9.2 mph WSW14.8 kmh WSW 11.5 mph18.5 kmh 29.65 in1004.1 mb - 0.00 in0.0 mm 0.00 in0.0 mm
01:15 AM 56.7°F13.7°C 47.4°F8.6°C 71% 10.4 mph W16.7 kmh W 17.3 mph27.8 kmh 29.65 in1004.1 mb - 0.00 in0.0 mm 0.00 in0.0 mm
01:20 AM 56.7°F13.7°C 47.4°F8.6°C 71% 5.8 mph SW9.3 kmh SW 9.2 mph14.8 kmh 29.65 in1004.1 mb - 0.00 in0.0 mm 0.00 in0.0 mm
01:25 AM 56.7°F13.7°C 47.4°F8.6°C 71% 10.4 mph SW16.7 kmh SW 17.3 mph27.8 kmh 29.68 in1005.1 mb - 0.00 in0.0 mm 0.00 in0.0 mm
01:30 AM 56.7°F13.7°C 47.4°F8.6°C 71% 8.1 mph SW13.0 kmh SW 13.8 mph22.2 kmh 29.68 in1005.1 mb - 0.00 in0.0 mm 0.00 in0.0 mm
01:35 AM 56.5°F13.6°C 47.2°F8.4°C 71% 6.9 mph SW11.1 kmh SW 9.2 mph14.8 kmh 29.68 in1005.1 mb - 0.00 in0.0 mm 0.00 in0.0 mm
01:40 AM 56.5°F13.6°C 47.2°F8.4°C 71% 9.2 mph WSW14.8 kmh WSW 11.5 mph18.5 kmh 29.68 in1005.1 mb - 0.00 in0.0 mm 0.00 in0.0 mm
01:45 AM 56.5°F13.6°C 47.2°F8.4°C 71% 10.4 mph WSW16.7 kmh WSW 13.8 mph22.2 kmh 29.68 in1005.1 mb - 0.00 in0.0 mm 0.00 in0.0 mm
01:50 AM 56.5°F13.6°C 47.6°F8.7°C 72% 5.8 mph SW9.3 kmh SW 10.4 mph16.7 kmh 29.68 in1005.1 mb - 0.00 in0.0 mm 0.00 in0.0 mm
01:55 AM 56.5°F13.6°C 47.6°F8.7°C 72% 5.8 mph SW9.3 kmh SW 8.1 mph13.0 kmh 29.65 in1004.1 mb - 0.00 in0.0 mm 0.00 in0.0 mm
02:00 AM 56.3°F13.5°C 47.4°F8.6°C 72% 9.2 mph SW14.8 kmh SW 11.5 mph18.5 kmh 29.65 in1004.1 mb - 0.00 in0.0 mm 0.00 in0.0 mm
02:10 AM 56.5°F13.6°C 47.9°F8.8°C 73% 9.2 mph SW14.8 kmh SW 11.5 mph18.5 kmh 29.68 in1005.1 mb - 0.00 in0.0 mm 0.00 in0.0 mm
02:15 AM 56.5°F13.6°C 47.9°F8.8°C 73% 8.1 mph SW13.0 kmh SW 9.2 mph14.8 kmh 29.68 in1005.1 mb - 0.00 in0.0 mm 0.00 in0.0 mm
02:20 AM 56.5°F13.6°C 47.9°F8.8°C 73% 5.8 mph SW9.3 kmh SW 9.2 mph14.8 kmh 29.68 in1005.1 mb - 0.00 in0.0 mm 0.00 in0.0 mm
02:25 AM 56.5°F13.6°C 47.9°F8.8°C 73% 5.8 mph SW9.3 kmh SW 11.5 mph18.5 kmh 29.68 in1005.1 mb - 0.00 in0.0 mm 0.00 in0.0 mm
02:30 AM 56.5°F13.6°C 47.9°F8.8°C 73% 8.1 mph WSW13.0 kmh WSW 9.2 mph14.8 kmh 29.68 in1005.1 mb - 0.00 in0.0 mm 0.00 in0.0 mm
02:35 AM 56.5°F13.6°C 47.9°F8.8°C 73% 4.6 mph WSW7.4 kmh WSW 10.4 mph16.7 kmh 29.68 in1005.1 mb - 0.00 in0.0 mm 0.00 in0.0 mm
02:40 AM 56.5°F13.6°C 47.9°F8.8°C 73% 6.9 mph SSW11.1 kmh SSW 10.4 mph16.7 kmh 29.68 in1005.1 mb - 0.00 in0.0 mm 0.00 in0.0 mm
02:45 AM 56.5°F13.6°C 47.9°F8.8°C 73% 5.8 mph WSW9.3 kmh WSW 9.2 mph14.8 kmh 29.68 in1005.1 mb - 0.00 in0.0 mm 0.00 in0.0 mm
02:50 AM 56.5°F13.6°C 47.9°F8.8°C 73% 6.9 mph SW11.1 kmh SW 10.4 mph16.7 kmh 29.68 in1005.1 mb - 0.00 in0.0 mm 0.00 in0.0 mm
02:55 AM 56.5°F13.6°C 47.9°F8.8°C 73% 6.9 mph SW11.1 kmh SW 11.5 mph18.5 kmh 29.68 in1005.1 mb - 0.00 in0.0 mm 0.00 in0.0 mm
03:00 AM 56.5°F13.6°C 47.9°F8.8°C 73% 6.9 mph WSW11.1 kmh WSW 10.4 mph16.7 kmh 29.68 in1005.1 mb - 0.00 in0.0 mm 0.00 in0.0 mm
03:10 AM 56.5°F13.6°C 47.9°F8.8°C 73% 5.8 mph SW9.3 kmh SW 8.1 mph13.0 kmh 29.68 in1005.1 mb - 0.00 in0.0 mm 0.00 in0.0 mm
03:15 AM 56.7°F13.7°C 48.1°F8.9°C 73% 5.8 mph SW9.3 kmh SW 8.1 mph13.0 kmh 29.68 in1005.1 mb - 0.00 in0.0 mm 0.00 in0.0 mm
03:20 AM 56.7°F13.7°C 48.1°F8.9°C 73% 5.8 mph SW9.3 kmh SW 6.9 mph11.1 kmh 29.68 in1005.1 mb - 0.00 in0.0 mm 0.00 in0.0 mm
03:25 AM 56.7°F13.7°C 48.1°F8.9°C 73% 6.9 mph S11.1 kmh S 9.2 mph14.8 kmh 29.71 in1006.1 mb - 0.00 in0.0 mm 0.00 in0.0 mm
03:30 AM 56.7°F13.7°C 48.1°F8.9°C 73% 6.9 mph WSW11.1 kmh WSW 12.7 mph20.4 kmh 29.71 in1006.1 mb - 0.00 in0.0 mm 0.00 in0.0 mm
03:35 AM 56.7°F13.7°C 48.1°F8.9°C 73% 5.8 mph NW9.3 kmh NW 8.1 mph13.0 kmh 29.71 in1006.1 mb - 0.00 in0.0 mm 0.00 in0.0 mm
03:40 AM 56.7°F13.7°C 48.1°F8.9°C 73% 6.9 mph SW11.1 kmh SW 12.7 mph20.4 kmh 29.71 in1006.1 mb - 0.00 in0.0 mm 0.00 in0.0 mm
03:45 AM 56.7°F13.7°C 48.1°F8.9°C 73% 5.8 mph WSW9.3 kmh WSW 8.1 mph13.0 kmh 29.71 in1006.1 mb - 0.00 in0.0 mm 0.00 in0.0 mm
03:50 AM 56.7°F13.7°C 48.1°F8.9°C 73% 8.1 mph WSW13.0 kmh WSW 10.4 mph16.7 kmh 29.71 in1006.1 mb - 0.00 in0.0 mm 0.00 in0.0 mm
03:55 AM 56.7°F13.7°C 48.1°F8.9°C 73% 5.8 mph W9.3 kmh W 13.8 mph22.2 kmh 29.68 in1005.1 mb - 0.00 in0.0 mm 0.00 in0.0 mm
04:00 AM 56.7°F13.7°C 48.5°F9.2°C 74% 5.8 mph W9.3 kmh W 10.4 mph16.7 kmh 29.68 in1005.1 mb - 0.00 in0.0 mm 0.00 in0.0 mm
04:10 AM 56.7°F13.7°C 48.5°F9.2°C 74% 6.9 mph WSW11.1 kmh WSW 10.4 mph16.7 kmh 29.68 in1005.1 mb - 0.00 in0.0 mm 0.00 in0.0 mm
04:15 AM 56.7°F13.7°C 48.5°F9.2°C 74% 6.9 mph WSW11.1 kmh WSW 13.8 mph22.2 kmh 29.68 in1005.1 mb - 0.00 in0.0 mm 0.00 in0.0 mm
04:20 AM 56.7°F13.7°C 48.5°F9.2°C 74% 8.1 mph WSW13.0 kmh WSW 9.2 mph14.8 kmh 29.68 in1005.1 mb - 0.00 in0.0 mm 0.00 in0.0 mm
04:25 AM 56.5°F13.6°C 48.3°F9.1°C 74% 8.1 mph WSW13.0 kmh WSW 11.5 mph18.5 kmh 29.68 in1005.1 mb - 0.00 in0.0 mm 0.00 in0.0 mm
04:30 AM 56.5°F13.6°C 48.3°F9.1°C 74% 8.1 mph SW13.0 kmh SW 10.4 mph16.7 kmh 29.68 in1005.1 mb - 0.00 in0.0 mm 0.00 in0.0 mm
04:35 AM 56.4°F13.6°C 48.2°F9.0°C 74% 8.1 mph WSW13.0 kmh WSW 12.7 mph20.4 kmh 29.68 in1005.1 mb - 0.00 in0.0 mm 0.00 in0.0 mm
04:40 AM 56.3°F13.5°C 48.5°F9.2°C 75% 8.1 mph SW13.0 kmh SW 8.1 mph13.0 kmh 29.68 in1005.1 mb - 0.00 in0.0 mm 0.00 in0.0 mm
04:45 AM 56.3°F13.5°C 48.5°F9.2°C 75% 8.1 mph WSW13.0 kmh WSW 11.5 mph18.5 kmh 29.68 in1005.1 mb - 0.00 in0.0 mm 0.00 in0.0 mm
04:50 AM 56.3°F13.5°C 48.8°F9.3°C 76% 9.2 mph WSW14.8 kmh WSW 10.4 mph16.7 kmh 29.68 in1005.1 mb - 0.00 in0.0 mm 0.00 in0.0 mm
04:55 AM 56.1°F13.4°C 48.7°F9.3°C 76% 5.8 mph WSW9.3 kmh WSW 6.9 mph11.1 kmh 29.71 in1006.1 mb - 0.00 in0.0 mm 0.00 in0.0 mm
05:00 AM 56.1°F13.4°C 49.0°F9.4°C 77% 6.9 mph WSW11.1 kmh WSW 9.2 mph14.8 kmh 29.71 in1006.1 mb - 0.00 in0.0 mm 0.00 in0.0 mm
05:10 AM 55.9°F13.3°C 48.8°F9.3°C 77% 8.1 mph SW13.0 kmh SW 11.5 mph18.5 kmh 29.68 in1005.1 mb - 0.00 in0.0 mm 0.00 in0.0 mm
05:15 AM 55.9°F13.3°C 49.2°F9.6°C 78% 8.1 mph W13.0 kmh W 11.5 mph18.5 kmh 29.68 in1005.1 mb - 0.00 in0.0 mm 0.00 in0.0 mm
05:20 AM 55.9°F13.3°C 49.2°F9.6°C 78% 9.2 mph WSW14.8 kmh WSW 11.5 mph18.5 kmh 29.68 in1005.1 mb - 0.00 in0.0 mm 0.00 in0.0 mm
05:25 AM 56.1°F13.4°C 49.4°F9.7°C 78% 9.2 mph WSW14.8 kmh WSW 11.5 mph18.5 kmh 29.68 in1005.1 mb - 0.00 in0.0 mm 0.00 in0.0 mm
05:30 AM 55.9°F13.3°C 49.5°F9.7°C 79% 6.9 mph WSW11.1 kmh WSW 6.9 mph11.1 kmh 29.68 in1005.1 mb - 0.02 in0.5 mm 0.02 in0.5 mm
05:35 AM 55.9°F13.3°C 49.5°F9.7°C 79% 6.9 mph SW11.1 kmh SW 9.2 mph14.8 kmh 29.68 in1005.1 mb - 0.02 in0.5 mm 0.02 in0.5 mm
05:40 AM 55.9°F13.3°C 49.5°F9.7°C 79% 5.8 mph WSW9.3 kmh WSW 9.2 mph14.8 kmh 29.68 in1005.1 mb - 0.02 in0.5 mm 0.02 in0.5 mm
05:45 AM 55.9°F13.3°C 49.5°F9.7°C 79% 6.9 mph WSW11.1 kmh WSW 9.2 mph14.8 kmh 29.68 in1005.1 mb - 0.02 in0.5 mm 0.02 in0.5 mm
05:50 AM 55.9°F13.3°C 49.5°F9.7°C 79% 6.9 mph WSW11.1 kmh WSW 5.8 mph9.3 kmh 29.68 in1005.1 mb - 0.02 in0.5 mm 0.02 in0.5 mm
05:55 AM 55.9°F13.3°C 49.5°F9.7°C 79% 4.6 mph WSW7.4 kmh WSW 8.1 mph13.0 kmh 29.71 in1006.1 mb - 0.02 in0.5 mm 0.02 in0.5 mm
06:00 AM 55.8°F13.2°C 49.7°F9.8°C 80% 4.6 mph WSW7.4 kmh WSW 8.1 mph13.0 kmh 29.71 in1006.1 mb - 0.02 in0.5 mm 0.02 in0.5 mm
06:10 AM 55.6°F13.1°C 49.5°F9.7°C 80% 4.6 mph W7.4 kmh W 6.9 mph11.1 kmh 29.71 in1006.1 mb - 0.02 in0.5 mm 0.02 in0.5 mm
06:15 AM 55.4°F13.0°C 49.3°F9.6°C 80% 4.6 mph W7.4 kmh W 5.8 mph9.3 kmh 29.71 in1006.1 mb - 0.03 in0.8 mm 0.03 in0.8 mm
06:20 AM 55.4°F13.0°C 49.3°F9.6°C 80% 6.9 mph SW11.1 kmh SW 9.2 mph14.8 kmh 29.71 in1006.1 mb - 0.03 in0.8 mm 0.03 in0.8 mm
06:25 AM 55.4°F13.0°C 49.3°F9.6°C 80% 6.9 mph WNW11.1 kmh WNW 9.2 mph14.8 kmh 29.71 in1006.1 mb - 0.03 in0.8 mm 0.03 in0.8 mm
06:30 AM 55.2°F12.9°C 49.5°F9.7°C 81% 3.5 mph WNW5.6 kmh WNW 4.6 mph7.4 kmh 29.71 in1006.1 mb - 0.03 in0.8 mm 0.05 in1.3 mm
06:35 AM 54.7°F12.6°C 48.9°F9.4°C 81% 2.3 mph W3.7 kmh W 2.3 mph3.7 kmh 29.71 in1006.1 mb - 0.03 in0.8 mm 0.05 in1.3 mm
06:40 AM 54.5°F12.5°C 48.5°F9.2°C 80% 1.2 mph WNW1.9 kmh WNW 1.2 mph1.9 kmh 29.71 in1006.1 mb - 0.03 in0.8 mm 0.05 in1.3 mm
06:45 AM 54.3°F12.4°C 48.3°F9.1°C 80% 1.2 mph NNW1.9 kmh NNW 1.2 mph1.9 kmh 29.71 in1006.1 mb - 0.03 in0.8 mm 0.05 in1.3 mm
06:50 AM 54.1°F12.3°C 48.1°F8.9°C 80% 1.2 mph WNW1.9 kmh WNW 1.2 mph1.9 kmh 29.71 in1006.1 mb - 0.03 in0.8 mm 0.05 in1.3 mm
06:55 AM 54.0°F12.2°C 47.9°F8.8°C 80% 1.2 mph NW1.9 kmh NW 2.3 mph3.7 kmh 29.71 in1006.1 mb - 0.05 in1.3 mm 0.07 in1.8 mm
07:00 AM 53.9°F12.2°C 47.9°F8.8°C 80% 1.2 mph NE1.9 kmh NE 1.2 mph1.9 kmh 29.71 in1006.1 mb - 0.05 in1.3 mm 0.07 in1.8 mm
07:10 AM 53.6°F12.0°C 47.6°F8.7°C 80% 1.2 mph NNW1.9 kmh NNW 1.2 mph1.9 kmh 29.74 in1007.1 mb - 0.05 in1.3 mm 0.07 in1.8 mm
07:15 AM 53.6°F12.0°C 47.6°F8.7°C 80% Calm Calm -- 29.74 in1007.1 mb - 0.05 in1.3 mm 0.08 in2.0 mm
07:20 AM 53.6°F12.0°C 47.6°F8.7°C 80% Calm Calm -- 29.74 in1007.1 mb - 0.05 in1.3 mm 0.08 in2.0 mm
07:25 AM 53.6°F12.0°C 47.9°F8.8°C 81% Calm Calm -- 29.74 in1007.1 mb - 0.05 in1.3 mm 0.08 in2.0 mm
07:30 AM 53.6°F12.0°C 47.9°F8.8°C 81% Calm Calm -- 29.74 in1007.1 mb - 0.03 in0.8 mm 0.08 in2.0 mm
07:35 AM 53.6°F12.0°C 47.9°F8.8°C 81% 1.2 mph NW1.9 kmh NW 1.2 mph1.9 kmh 29.74 in1007.1 mb - 0.03 in0.8 mm 0.08 in2.0 mm
07:40 AM 53.6°F12.0°C 47.9°F8.8°C 81% Calm Calm -- 29.74 in1007.1 mb - 0.05 in1.3 mm 0.11 in2.8 mm
07:45 AM 53.6°F12.0°C 47.9°F8.8°C 81% Calm Calm 1.2 mph1.9 kmh 29.74 in1007.1 mb - 0.05 in1.3 mm 0.11 in2.8 mm
07:50 AM 53.6°F12.0°C 47.9°F8.8°C 81% 1.2 mph NNE1.9 kmh NNE 1.2 mph1.9 kmh 29.74 in1007.1 mb - 0.05 in1.3 mm 0.11 in2.8 mm
07:55 AM 53.6°F12.0°C 47.9°F8.8°C 81% Calm Calm 2.3 mph3.7 kmh 29.74 in1007.1 mb - 0.05 in1.3 mm 0.11 in2.8 mm
08:00 AM 53.4°F11.9°C 47.7°F8.7°C 81% Calm Calm -- 29.74 in1007.1 mb - 0.04 in1.0 mm 0.11 in2.8 mm
08:10 AM 53.4°F11.9°C 47.7°F8.7°C 81% 1.2 mph NW1.9 kmh NW 2.3 mph3.7 kmh 29.74 in1007.1 mb - 0.04 in1.0 mm 0.11 in2.8 mm
08:15 AM 53.2°F11.8°C 47.6°F8.7°C 81% 2.3 mph WNW3.7 kmh WNW 2.3 mph3.7 kmh 29.74 in1007.1 mb - 0.04 in1.0 mm 0.11 in2.8 mm
08:20 AM 53.2°F11.8°C 47.9°F8.8°C 82% 2.3 mph NW3.7 kmh NW 2.3 mph3.7 kmh 29.74 in1007.1 mb - 0.02 in0.5 mm 0.11 in2.8 mm
08:25 AM 53.2°F11.8°C 47.9°F8.8°C 82% 2.3 mph N3.7 kmh N 2.3 mph3.7 kmh 29.74 in1007.1 mb - 0.04 in1.0 mm 0.12 in3.0 mm
08:30 AM 53.2°F11.8°C 47.9°F8.8°C 82% 2.3 mph NW3.7 kmh NW 2.3 mph3.7 kmh 29.74 in1007.1 mb - 0.04 in1.0 mm 0.12 in3.0 mm
08:35 AM 53.4°F11.9°C 48.1°F8.9°C 82% 2.3 mph NW3.7 kmh NW 2.3 mph3.7 kmh 29.74 in1007.1 mb - 0.04 in1.0 mm 0.12 in3.0 mm
08:40 AM 53.4°F11.9°C 48.1°F8.9°C 82% 2.3 mph WNW3.7 kmh WNW 2.3 mph3.7 kmh 29.74 in1007.1 mb - 0.04 in1.0 mm 0.12 in3.0 mm
08:45 AM 53.4°F11.9°C 48.1°F8.9°C 82% 2.3 mph WNW3.7 kmh WNW 2.3 mph3.7 kmh 29.74 in1007.1 mb - 0.02 in0.5 mm 0.12 in3.0 mm
08:50 AM 53.6°F12.0°C 48.2°F9.0°C 82% Calm Calm -- 29.74 in1007.1 mb - 0.02 in0.5 mm 0.12 in3.0 mm
08:55 AM 53.8°F12.1°C 48.4°F9.1°C 82% 2.3 mph WNW3.7 kmh WNW 2.3 mph3.7 kmh 29.74 in1007.1 mb - 0.03 in0.8 mm 0.14 in3.6 mm
09:00 AM 54.0°F12.2°C 48.6°F9.2°C 82% Calm Calm 1.2 mph1.9 kmh 29.74 in1007.1 mb - 0.03 in0.8 mm 0.14 in3.6 mm
09:10 AM 54.1°F12.3°C 49.1°F9.5°C 83% Calm Calm -- 29.74 in1007.1 mb - 0.03 in0.8 mm 0.14 in3.6 mm
09:15 AM 54.3°F12.4°C 49.3°F9.6°C 83% Calm Calm -- 29.74 in1007.1 mb - 0.03 in0.8 mm 0.14 in3.6 mm
09:20 AM 54.5°F12.5°C 49.4°F9.7°C 83% Calm Calm 1.2 mph1.9 kmh 29.74 in1007.1 mb - 0.03 in0.8 mm 0.14 in3.6 mm
09:25 AM 54.5°F12.5°C 49.4°F9.7°C 83% Calm Calm -- 29.74 in1007.1 mb - 0.02 in0.5 mm 0.14 in3.6 mm
09:30 AM 54.5°F12.5°C 49.4°F9.7°C 83% 2.3 mph SE3.7 kmh SE 2.3 mph3.7 kmh 29.74 in1007.1 mb - 0.03 in0.8 mm 0.16 in4.1 mm
09:35 AM 54.3°F12.4°C 49.3°F9.6°C 83% 2.3 mph E3.7 kmh E 2.3 mph3.7 kmh 29.74 in1007.1 mb - 0.03 in0.8 mm 0.16 in4.1 mm
09:40 AM 54.1°F12.3°C 49.1°F9.5°C 83% 2.3 mph E3.7 kmh E 3.5 mph5.6 kmh 29.74 in1007.1 mb - 0.03 in0.8 mm 0.16 in4.1 mm
09:45 AM 54.0°F12.2°C 48.6°F9.2°C 82% 2.3 mph E3.7 kmh E 2.3 mph3.7 kmh 29.74 in1007.1 mb - 0.03 in0.8 mm 0.16 in4.1 mm
09:50 AM 54.0°F12.2°C 48.6°F9.2°C 82% 2.3 mph SE3.7 kmh SE 2.3 mph3.7 kmh 29.74 in1007.1 mb - 0.03 in0.8 mm 0.16 in4.1 mm
09:55 AM 54.0°F12.2°C 48.9°F9.4°C 83% 2.3 mph SE3.7 kmh SE 2.3 mph3.7 kmh 29.74 in1007.1 mb - 0.03 in0.8 mm 0.16 in4.1 mm
10:00 AM 54.0°F12.2°C 48.9°F9.4°C 83% 1.2 mph S1.9 kmh S 2.3 mph3.7 kmh 29.74 in1007.1 mb - 0.02 in0.5 mm 0.16 in4.1 mm
10:10 AM 54.0°F12.2°C 48.9°F9.4°C 83% 1.2 mph E1.9 kmh E 1.2 mph1.9 kmh 29.74 in1007.1 mb - 0.02 in0.5 mm 0.16 in4.1 mm
10:15 AM 54.0°F12.2°C 48.9°F9.4°C 83% 1.2 mph SE1.9 kmh SE 2.3 mph3.7 kmh 29.74 in1007.1 mb - 0.02 in0.5 mm 0.16 in4.1 mm
10:20 AM 54.1°F12.3°C 49.1°F9.5°C 83% 1.2 mph ESE1.9 kmh ESE 2.3 mph3.7 kmh 29.74 in1007.1 mb - 0.02 in0.5 mm 0.16 in4.1 mm
10:25 AM 54.1°F12.3°C 49.1°F9.5°C 83% 1.2 mph NE1.9 kmh NE 3.5 mph5.6 kmh 29.74 in1007.1 mb - 0.02 in0.5 mm 0.16 in4.1 mm
10:30 AM 54.1°F12.3°C 49.1°F9.5°C 83% 1.2 mph SW1.9 kmh SW 3.5 mph5.6 kmh 29.74 in1007.1 mb - 0.00 in0.0 mm 0.16 in4.1 mm
10:35 AM 54.5°F12.5°C 49.4°F9.7°C 83% Calm Calm 1.2 mph1.9 kmh 29.74 in1007.1 mb - 0.00 in0.0 mm 0.16 in4.1 mm
10:40 AM 54.7°F12.6°C 49.6°F9.8°C 83% 3.5 mph SW5.6 kmh SW 3.5 mph5.6 kmh 29.74 in1007.1 mb - 0.00 in0.0 mm 0.16 in4.1 mm
10:45 AM 55.2°F12.9°C 50.4°F10.2°C 84% 3.5 mph SW5.6 kmh SW 5.8 mph9.3 kmh 29.74 in1007.1 mb - 0.00 in0.0 mm 0.16 in4.1 mm
10:50 AM 55.6°F13.1°C 50.8°F10.4°C 84% 5.8 mph WSW9.3 kmh WSW 5.8 mph9.3 kmh 29.74 in1007.1 mb - 0.00 in0.0 mm 0.16 in4.1 mm
10:55 AM 55.9°F13.3°C 51.2°F10.7°C 84% 3.5 mph SW5.6 kmh SW 4.6 mph7.4 kmh 29.74 in1007.1 mb - 0.00 in0.0 mm 0.16 in4.1 mm
11:00 AM 56.3°F13.5°C 51.5°F10.8°C 84% 8.1 mph SW13.0 kmh SW 10.4 mph16.7 kmh 29.74 in1007.1 mb - 0.00 in0.0 mm 0.16 in4.1 mm
11:10 AM 56.8°F13.8°C 52.1°F11.2°C 84% 5.8 mph SSW9.3 kmh SSW 9.2 mph14.8 kmh 29.74 in1007.1 mb - 0.00 in0.0 mm 0.16 in4.1 mm
11:15 AM 57.0°F13.9°C 52.3°F11.3°C 84% 10.4 mph WSW16.7 kmh WSW 13.8 mph22.2 kmh 29.74 in1007.1 mb - 0.00 in0.0 mm 0.16 in4.1 mm
11:20 AM 57.4°F14.1°C 52.6°F11.4°C 84% 8.1 mph SW13.0 kmh SW 8.1 mph13.0 kmh 29.74 in1007.1 mb - 0.00 in0.0 mm 0.16 in4.1 mm
11:25 AM 57.6°F14.2°C 52.5°F11.4°C 83% 8.1 mph SW13.0 kmh SW 16.1 mph25.9 kmh 29.74 in1007.1 mb - 0.00 in0.0 mm 0.16 in4.1 mm
11:30 AM 57.9°F14.4°C 52.5°F11.4°C 82% 13.8 mph SW22.2 kmh SW 15.0 mph24.1 kmh 29.74 in1007.1 mb - 0.02 in0.5 mm 0.17 in4.3 mm
11:35 AM 58.1°F14.5°C 52.0°F11.1°C 80% 11.5 mph WSW18.5 kmh WSW 16.1 mph25.9 kmh 29.74 in1007.1 mb - 0.02 in0.5 mm 0.17 in4.3 mm
11:40 AM 58.5°F14.7°C 52.0°F11.1°C 79% 9.2 mph SW14.8 kmh SW 13.8 mph22.2 kmh 29.74 in1007.1 mb - 0.02 in0.5 mm 0.17 in4.3 mm
11:45 AM 58.6°F14.8°C 51.8°F11.0°C 78% 9.2 mph W14.8 kmh W 16.1 mph25.9 kmh 29.74 in1007.1 mb - 0.02 in0.5 mm 0.17 in4.3 mm
11:50 AM 58.8°F14.9°C 51.6°F10.9°C 77% 11.5 mph WSW18.5 kmh WSW 12.7 mph20.4 kmh 29.74 in1007.1 mb - 0.02 in0.5 mm 0.17 in4.3 mm
11:55 AM 59.2°F15.1°C 51.6°F10.9°C 76% 12.7 mph WSW20.4 kmh WSW 16.1 mph25.9 kmh 29.74 in1007.1 mb - 0.02 in0.5 mm 0.17 in4.3 mm
12:10 PM 59.0°F15.0°C 50.4°F10.2°C 73% 10.4 mph W16.7 kmh W 16.1 mph25.9 kmh 29.74 in1007.1 mb - 0.02 in0.5 mm 0.17 in4.3 mm
12:15 PM 58.8°F14.9°C 50.2°F10.1°C 73% 10.4 mph WSW16.7 kmh WSW 17.3 mph27.8 kmh 29.74 in1007.1 mb - 0.02 in0.5 mm 0.17 in4.3 mm
12:20 PM 58.6°F14.8°C 49.6°F9.8°C 72% 9.2 mph W14.8 kmh W 11.5 mph18.5 kmh 29.74 in1007.1 mb - 0.02 in0.5 mm 0.17 in4.3 mm
12:25 PM 58.5°F14.7°C 49.5°F9.7°C 72% 9.2 mph W14.8 kmh W 13.8 mph22.2 kmh 29.77 in1008.1 mb - 0.02 in0.5 mm 0.17 in4.3 mm
12:30 PM 58.3°F14.6°C 49.3°F9.6°C 72% 9.2 mph SW14.8 kmh SW 12.7 mph20.4 kmh 29.77 in1008.1 mb - 0.02 in0.5 mm 0.17 in4.3 mm
12:35 PM 58.1°F14.5°C 49.1°F9.5°C 72% 10.4 mph WSW16.7 kmh WSW 9.2 mph14.8 kmh 29.77 in1008.1 mb - 0.00 in0.0 mm 0.17 in4.3 mm
12:40 PM 58.1°F14.5°C 49.1°F9.5°C 72% 8.1 mph W13.0 kmh W 9.2 mph14.8 kmh 29.71 in1006.1 mb - 0.00 in0.0 mm 0.17 in4.3 mm
12:45 PM 58.1°F14.5°C 49.1°F9.5°C 72% 8.1 mph SW13.0 kmh SW 13.8 mph22.2 kmh 29.71 in1006.1 mb - 0.00 in0.0 mm 0.17 in4.3 mm
12:50 PM 58.1°F14.5°C 49.1°F9.5°C 72% 10.4 mph SW16.7 kmh SW 15.0 mph24.1 kmh 29.71 in1006.1 mb - 0.00 in0.0 mm 0.17 in4.3 mm
12:55 PM 58.1°F14.5°C 49.1°F9.5°C 72% 8.1 mph W13.0 kmh W 13.8 mph22.2 kmh 29.77 in1008.1 mb - 0.00 in0.0 mm 0.17 in4.3 mm
01:00 PM 58.1°F14.5°C 49.1°F9.5°C 72% 8.1 mph W13.0 kmh W 12.7 mph20.4 kmh 29.77 in1008.1 mb - 0.00 in0.0 mm 0.17 in4.3 mm
01:10 PM 58.3°F14.6°C 49.3°F9.6°C 72% 6.9 mph WSW11.1 kmh WSW 8.1 mph13.0 kmh 29.74 in1007.1 mb - 0.00 in0.0 mm 0.17 in4.3 mm
01:15 PM 58.8°F14.9°C 49.8°F9.9°C 72% 10.4 mph WSW16.7 kmh WSW 12.7 mph20.4 kmh 29.74 in1007.1 mb - 0.00 in0.0 mm 0.17 in4.3 mm
01:20 PM 59.1°F15.1°C 50.1°F10.1°C 72% 8.1 mph WSW13.0 kmh WSW 13.8 mph22.2 kmh 29.74 in1007.1 mb - 0.00 in0.0 mm 0.17 in4.3 mm
01:25 PM 58.8°F14.9°C 49.4°F9.7°C 71% 9.2 mph SW14.8 kmh SW 13.8 mph22.2 kmh 29.74 in1007.1 mb - 0.00 in0.0 mm 0.17 in4.3 mm
01:30 PM 58.6°F14.8°C 48.9°F9.4°C 70% 11.5 mph WSW18.5 kmh WSW 13.8 mph22.2 kmh 29.74 in1007.1 mb - 0.00 in0.0 mm 0.17 in4.3 mm
01:35 PM 58.8°F14.9°C 49.1°F9.5°C 70% 13.8 mph SW22.2 kmh SW 19.6 mph31.5 kmh 29.74 in1007.1 mb - 0.00 in0.0 mm 0.17 in4.3 mm
01:40 PM 59.2°F15.1°C 49.0°F9.4°C 69% 5.8 mph SW9.3 kmh SW 10.4 mph16.7 kmh 29.74 in1007.1 mb - 0.00 in0.0 mm 0.17 in4.3 mm
01:45 PM 59.2°F15.1°C 49.0°F9.4°C 69% 13.8 mph WSW22.2 kmh WSW 21.9 mph35.2 kmh 29.74 in1007.1 mb - 0.00 in0.0 mm 0.17 in4.3 mm
01:50 PM 59.1°F15.1°C 48.5°F9.2°C 68% 10.4 mph WSW16.7 kmh WSW 12.7 mph20.4 kmh 29.74 in1007.1 mb - 0.00 in0.0 mm 0.17 in4.3 mm
01:55 PM 59.4°F15.2°C 48.8°F9.3°C 68% 12.7 mph SW20.4 kmh SW 18.4 mph29.6 kmh 29.74 in1007.1 mb - 0.00 in0.0 mm 0.17 in4.3 mm
02:00 PM 59.4°F15.2°C 48.8°F9.3°C 68% 11.5 mph WSW18.5 kmh WSW 20.7 mph33.3 kmh 29.74 in1007.1 mb - 0.00 in0.0 mm 0.17 in4.3 mm
02:10 PM 59.0°F15.0°C 48.1°F8.9°C 67% 11.5 mph W18.5 kmh W 19.6 mph31.5 kmh 29.74 in1007.1 mb - 0.00 in0.0 mm 0.17 in4.3 mm
02:15 PM 58.9°F14.9°C 48.3°F9.1°C 68% 13.8 mph SW22.2 kmh SW 18.4 mph29.6 kmh 29.74 in1007.1 mb - 0.00 in0.0 mm 0.17 in4.3 mm
02:20 PM 59.1°F15.1°C 48.5°F9.2°C 68% 10.4 mph SW16.7 kmh SW 13.8 mph22.2 kmh 29.74 in1007.1 mb - 0.00 in0.0 mm 0.17 in4.3 mm
02:25 PM 59.2°F15.1°C 48.2°F9.0°C 67% 11.5 mph SW18.5 kmh SW 15.0 mph24.1 kmh 29.74 in1007.1 mb - 0.00 in0.0 mm 0.17 in4.3 mm
02:30 PM 59.0°F15.0°C 48.1°F8.9°C 67% 10.4 mph SW16.7 kmh SW 16.1 mph25.9 kmh 29.74 in1007.1 mb - 0.00 in0.0 mm 0.17 in4.3 mm
02:35 PM 58.8°F14.9°C 47.9°F8.8°C 67% 15.0 mph SW24.1 kmh SW 16.1 mph25.9 kmh 29.74 in1007.1 mb - 0.00 in0.0 mm 0.17 in4.3 mm
02:40 PM 58.8°F14.9°C 47.9°F8.8°C 67% 10.4 mph SW16.7 kmh SW 13.8 mph22.2 kmh 29.74 in1007.1 mb - 0.00 in0.0 mm 0.17 in4.3 mm
02:45 PM 58.8°F14.9°C 47.9°F8.8°C 67% 8.1 mph SW13.0 kmh SW 11.5 mph18.5 kmh 29.74 in1007.1 mb - 0.00 in0.0 mm 0.17 in4.3 mm
02:50 PM 58.8°F14.9°C 48.3°F9.1°C 68% 10.4 mph WSW16.7 kmh WSW 17.3 mph27.8 kmh 29.74 in1007.1 mb - 0.00 in0.0 mm 0.17 in4.3 mm
02:55 PM 58.8°F14.9°C 47.9°F8.8°C 67% 11.5 mph SW18.5 kmh SW 13.8 mph22.2 kmh 29.71 in1006.1 mb - 0.00 in0.0 mm 0.17 in4.3 mm
03:00 PM 58.8°F14.9°C 47.9°F8.8°C 67% 9.2 mph SSW14.8 kmh SSW 13.8 mph22.2 kmh 29.71 in1006.1 mb - 0.00 in0.0 mm 0.17 in4.3 mm
03:10 PM 58.8°F14.9°C 47.9°F8.8°C 67% 11.5 mph SSW18.5 kmh SSW 13.8 mph22.2 kmh 29.71 in1006.1 mb - 0.00 in0.0 mm 0.17 in4.3 mm
03:15 PM 58.6°F14.8°C 47.7°F8.7°C 67% 12.7 mph SW20.4 kmh SW 18.4 mph29.6 kmh 29.71 in1006.1 mb - 0.00 in0.0 mm 0.17 in4.3 mm
03:20 PM 58.6°F14.8°C 47.7°F8.7°C 67% 8.1 mph SW13.0 kmh SW 10.4 mph16.7 kmh 29.71 in1006.1 mb - 0.00 in0.0 mm 0.17 in4.3 mm
03:25 PM 58.5°F14.7°C 47.5°F8.6°C 67% 10.4 mph WSW16.7 kmh WSW 15.0 mph24.1 kmh 29.71 in1006.1 mb - 0.00 in0.0 mm 0.17 in4.3 mm
03:30 PM 58.5°F14.7°C 47.5°F8.6°C 67% 11.5 mph WSW18.5 kmh WSW 15.0 mph24.1 kmh 29.71 in1006.1 mb - 0.00 in0.0 mm 0.17 in4.3 mm
03:35 PM 58.4°F14.7°C 47.5°F8.6°C 67% 10.4 mph WSW16.7 kmh WSW 15.0 mph24.1 kmh 29.71 in1006.1 mb - 0.00 in0.0 mm 0.17 in4.3 mm
03:40 PM 58.3°F14.6°C 47.4°F8.6°C 67% 13.8 mph WSW22.2 kmh WSW 17.3 mph27.8 kmh 29.71 in1006.1 mb - 0.00 in0.0 mm 0.17 in4.3 mm
03:45 PM 58.3°F14.6°C 47.4°F8.6°C 67% 11.5 mph WSW18.5 kmh WSW 15.0 mph24.1 kmh 29.71 in1006.1 mb - 0.00 in0.0 mm 0.17 in4.3 mm
03:50 PM 58.5°F14.7°C 47.5°F8.6°C 67% 6.9 mph SW11.1 kmh SW 8.1 mph13.0 kmh 29.71 in1006.1 mb - 0.00 in0.0 mm 0.17 in4.3 mm
03:55 PM 58.3°F14.6°C 47.4°F8.6°C 67% 11.5 mph SW18.5 kmh SW 13.8 mph22.2 kmh 29.71 in1006.1 mb - 0.00 in0.0 mm 0.17 in4.3 mm
04:00 PM 58.3°F14.6°C 47.4°F8.6°C 67% 10.4 mph WSW16.7 kmh WSW 13.8 mph22.2 kmh 29.71 in1006.1 mb - 0.00 in0.0 mm 0.17 in4.3 mm
04:10 PM 58.1°F14.5°C 47.2°F8.4°C 67% 8.1 mph SW13.0 kmh SW 11.5 mph18.5 kmh 29.71 in1006.1 mb - 0.00 in0.0 mm 0.17 in4.3 mm
04:15 PM 58.1°F14.5°C 47.6°F8.7°C 68% 9.2 mph SW14.8 kmh SW 12.7 mph20.4 kmh 29.71 in1006.1 mb - 0.00 in0.0 mm 0.17 in4.3 mm
04:20 PM 58.1°F14.5°C 47.6°F8.7°C 68% 13.8 mph SW22.2 kmh SW 19.6 mph31.5 kmh 29.71 in1006.1 mb - 0.00 in0.0 mm 0.17 in4.3 mm
04:25 PM 57.9°F14.4°C 47.4°F8.6°C 68% 9.2 mph SW14.8 kmh SW 15.0 mph24.1 kmh 29.71 in1006.1 mb - 0.00 in0.0 mm 0.17 in4.3 mm
04:30 PM 57.9°F14.4°C 47.4°F8.6°C 68% 9.2 mph SW14.8 kmh SW 15.0 mph24.1 kmh 29.71 in1006.1 mb - 0.00 in0.0 mm 0.17 in4.3 mm
04:35 PM 57.7°F14.3°C 47.2°F8.4°C 68% 10.4 mph SW16.7 kmh SW 13.8 mph22.2 kmh 29.71 in1006.1 mb - 0.00 in0.0 mm 0.17 in4.3 mm
04:40 PM 57.7°F14.3°C 47.2°F8.4°C 68% 8.1 mph SW13.0 kmh SW 16.1 mph25.9 kmh 29.71 in1006.1 mb - 0.00 in0.0 mm 0.17 in4.3 mm
04:45 PM 57.7°F14.3°C 47.6°F8.7°C 69% 8.1 mph WSW13.0 kmh WSW 16.1 mph25.9 kmh 29.71 in1006.1 mb - 0.00 in0.0 mm 0.17 in4.3 mm
04:50 PM 57.7°F14.3°C 47.6°F8.7°C 69% 10.4 mph WSW16.7 kmh WSW 16.1 mph25.9 kmh 29.71 in1006.1 mb - 0.00 in0.0 mm 0.17 in4.3 mm
04:55 PM 57.7°F14.3°C 47.6°F8.7°C 69% 9.2 mph SW14.8 kmh SW 10.4 mph16.7 kmh 29.68 in1005.1 mb - 0.00 in0.0 mm 0.17 in4.3 mm
05:00 PM 57.6°F14.2°C 47.5°F8.6°C 69% 11.5 mph SW18.5 kmh SW 16.1 mph25.9 kmh 29.68 in1005.1 mb - 0.00 in0.0 mm 0.17 in4.3 mm
05:10 PM 57.6°F14.2°C 47.5°F8.6°C 69% 12.7 mph WSW20.4 kmh WSW 18.4 mph29.6 kmh 29.71 in1006.1 mb - 0.00 in0.0 mm 0.17 in4.3 mm
05:15 PM 57.6°F14.2°C 47.5°F8.6°C 69% 9.2 mph SW14.8 kmh SW 15.0 mph24.1 kmh 29.71 in1006.1 mb - 0.00 in0.0 mm 0.17 in4.3 mm
05:20 PM 57.6°F14.2°C 47.5°F8.6°C 69% 9.2 mph W14.8 kmh W 21.9 mph35.2 kmh 29.71 in1006.1 mb - 0.00 in0.0 mm 0.17 in4.3 mm
05:25 PM 57.6°F14.2°C 47.8°F8.8°C 70% 11.5 mph SW18.5 kmh SW 16.1 mph25.9 kmh 29.68 in1005.1 mb - 0.00 in0.0 mm 0.17 in4.3 mm
05:30 PM 57.6°F14.2°C 47.8°F8.8°C 70% 8.1 mph WSW13.0 kmh WSW 11.5 mph18.5 kmh 29.68 in1005.1 mb - 0.00 in0.0 mm 0.17 in4.3 mm
05:35 PM 57.6°F14.2°C 47.8°F8.8°C 70% 15.0 mph SW24.1 kmh SW 18.4 mph29.6 kmh 29.68 in1005.1 mb - 0.00 in0.0 mm 0.17 in4.3 mm
05:40 PM 57.6°F14.2°C 47.8°F8.8°C 70% 10.4 mph SW16.7 kmh SW 11.5 mph18.5 kmh 29.68 in1005.1 mb - 0.00 in0.0 mm 0.17 in4.3 mm
05:45 PM 57.6°F14.2°C 47.8°F8.8°C 70% 6.9 mph W11.1 kmh W 12.7 mph20.4 kmh 29.68 in1005.1 mb - 0.00 in0.0 mm 0.17 in4.3 mm
05:50 PM 57.6°F14.2°C 47.8°F8.8°C 70% 12.7 mph SW20.4 kmh SW 17.3 mph27.8 kmh 29.68 in1005.1 mb - 0.00 in0.0 mm 0.17 in4.3 mm
05:55 PM 57.7°F14.3°C 48.0°F8.9°C 70% 12.7 mph SW20.4 kmh SW 19.6 mph31.5 kmh 29.71 in1006.1 mb - 0.00 in0.0 mm 0.17 in4.3 mm
06:00 PM 57.7°F14.3°C 48.0°F8.9°C 70% 10.4 mph WSW16.7 kmh WSW 13.8 mph22.2 kmh 29.71 in1006.1 mb - 0.00 in0.0 mm 0.17 in4.3 mm
06:10 PM 57.7°F14.3°C 48.0°F8.9°C 70% 8.1 mph SW13.0 kmh SW 12.7 mph20.4 kmh 29.68 in1005.1 mb - 0.00 in0.0 mm 0.17 in4.3 mm
06:15 PM 57.7°F14.3°C 48.0°F8.9°C 70% 11.5 mph WSW18.5 kmh WSW 12.7 mph20.4 kmh 29.68 in1005.1 mb - 0.00 in0.0 mm 0.17 in4.3 mm
06:20 PM 57.7°F14.3°C 48.0°F8.9°C 70% 10.4 mph SW16.7 kmh SW 18.4 mph29.6 kmh 29.68 in1005.1 mb - 0.00 in0.0 mm 0.17 in4.3 mm
06:25 PM 57.7°F14.3°C 48.0°F8.9°C 70% 13.8 mph SW22.2 kmh SW 16.1 mph25.9 kmh 29.68 in1005.1 mb - 0.00 in0.0 mm 0.17 in4.3 mm
06:30 PM 57.9°F14.4°C 48.2°F9.0°C 70% 12.7 mph SW20.4 kmh SW 21.9 mph35.2 kmh 29.68 in1005.1 mb - 0.00 in0.0 mm 0.17 in4.3 mm
06:35 PM 57.9°F14.4°C 48.2°F9.0°C 70% 9.2 mph WSW14.8 kmh WSW 13.8 mph22.2 kmh 29.68 in1005.1 mb - 0.00 in0.0 mm 0.17 in4.3 mm
06:40 PM 57.9°F14.4°C 47.8°F8.8°C 69% 12.7 mph WSW20.4 kmh WSW 16.1 mph25.9 kmh 29.68 in1005.1 mb - 0.00 in0.0 mm 0.17 in4.3 mm
06:45 PM 57.9°F14.4°C 47.8°F8.8°C 69% 12.7 mph WSW20.4 kmh WSW 16.1 mph25.9 kmh 29.68 in1005.1 mb - 0.00 in0.0 mm 0.17 in4.3 mm
06:50 PM 58.1°F14.5°C 48.0°F8.9°C 69% 17.3 mph W27.8 kmh W 24.2 mph38.9 kmh 29.68 in1005.1 mb - 0.00 in0.0 mm 0.17 in4.3 mm
06:55 PM 58.1°F14.5°C 48.0°F8.9°C 69% 16.1 mph WSW25.9 kmh WSW 20.7 mph33.3 kmh 29.68 in1005.1 mb - 0.00 in0.0 mm 0.17 in4.3 mm
07:00 PM 58.1°F14.5°C 48.0°F8.9°C 69% 10.4 mph SW16.7 kmh SW 16.1 mph25.9 kmh 29.68 in1005.1 mb - 0.00 in0.0 mm 0.17 in4.3 mm
07:10 PM 58.1°F14.5°C 48.0°F8.9°C 69% 13.8 mph SW22.2 kmh SW 18.4 mph29.6 kmh 29.65 in1004.1 mb - 0.00 in0.0 mm 0.17 in4.3 mm
07:15 PM 58.1°F14.5°C 48.0°F8.9°C 69% 9.2 mph W14.8 kmh W 15.0 mph24.1 kmh 29.65 in1004.1 mb - 0.00 in0.0 mm 0.17 in4.3 mm
07:20 PM 58.1°F14.5°C 48.0°F8.9°C 69% 15.0 mph W24.1 kmh W 20.7 mph33.3 kmh 29.65 in1004.1 mb - 0.00 in0.0 mm 0.17 in4.3 mm
07:25 PM 58.1°F14.5°C 48.0°F8.9°C 69% 11.5 mph WSW18.5 kmh WSW 19.6 mph31.5 kmh 29.68 in1005.1 mb - 0.00 in0.0 mm 0.17 in4.3 mm
07:30 PM 58.1°F14.5°C 48.0°F8.9°C 69% 15.0 mph SW24.1 kmh SW 17.3 mph27.8 kmh 29.68 in1005.1 mb - 0.00 in0.0 mm 0.17 in4.3 mm
07:35 PM 58.1°F14.5°C 48.0°F8.9°C 69% 11.5 mph W18.5 kmh W 15.0 mph24.1 kmh 29.68 in1005.1 mb - 0.00 in0.0 mm 0.17 in4.3 mm
07:40 PM 58.1°F14.5°C 48.0°F8.9°C 69% 12.7 mph SW20.4 kmh SW 23.0 mph37.0 kmh 29.68 in1005.1 mb - 0.00 in0.0 mm 0.17 in4.3 mm
07:45 PM 58.3°F14.6°C 48.2°F9.0°C 69% 12.7 mph WSW20.4 kmh WSW 18.4 mph29.6 kmh 29.68 in1005.1 mb - 0.00 in0.0 mm 0.17 in4.3 mm
07:50 PM 58.3°F14.6°C 48.2°F9.0°C 69% 15.0 mph SW24.1 kmh SW 21.9 mph35.2 kmh 29.68 in1005.1 mb - 0.00 in0.0 mm 0.17 in4.3 mm
07:55 PM 58.3°F14.6°C 48.2°F9.0°C 69% 12.7 mph WNW20.4 kmh WNW 17.3 mph27.8 kmh 29.65 in1004.1 mb - 0.00 in0.0 mm 0.17 in4.3 mm
08:00 PM 58.3°F14.6°C 48.2°F9.0°C 69% 12.7 mph W20.4 kmh W 16.1 mph25.9 kmh 29.65 in1004.1 mb - 0.00 in0.0 mm 0.17 in4.3 mm
08:10 PM 58.3°F14.6°C 48.2°F9.0°C 69% 11.5 mph WSW18.5 kmh WSW 15.0 mph24.1 kmh 29.68 in1005.1 mb - 0.00 in0.0 mm 0.17 in4.3 mm
08:15 PM 58.3°F14.6°C 48.2°F9.0°C 69% 15.0 mph SW24.1 kmh SW 19.6 mph31.5 kmh 29.68 in1005.1 mb - 0.00 in0.0 mm 0.17 in4.3 mm
08:20 PM 58.3°F14.6°C 48.2°F9.0°C 69% 10.4 mph SW16.7 kmh SW 12.7 mph20.4 kmh 29.68 in1005.1 mb - 0.00 in0.0 mm 0.17 in4.3 mm
08:25 PM 58.3°F14.6°C 48.2°F9.0°C 69% 15.0 mph W24.1 kmh W 18.4 mph29.6 kmh 29.68 in1005.1 mb - 0.00 in0.0 mm 0.17 in4.3 mm
08:30 PM 58.3°F14.6°C 48.2°F9.0°C 69% 11.5 mph WSW18.5 kmh WSW 18.4 mph29.6 kmh 29.68 in1005.1 mb - 0.00 in0.0 mm 0.17 in4.3 mm
08:35 PM 58.3°F14.6°C 48.2°F9.0°C 69% 15.0 mph WSW24.1 kmh WSW 18.4 mph29.6 kmh 29.68 in1005.1 mb - 0.00 in0.0 mm 0.17 in4.3 mm
08:40 PM 58.3°F14.6°C 48.2°F9.0°C 69% 11.5 mph WSW18.5 kmh WSW 13.8 mph22.2 kmh 29.68 in1005.1 mb - 0.00 in0.0 mm 0.17 in4.3 mm
08:45 PM 58.3°F14.6°C 48.2°F9.0°C 69% 12.7 mph WSW20.4 kmh WSW 16.1 mph25.9 kmh 29.68 in1005.1 mb - 0.00 in0.0 mm 0.17 in4.3 mm
08:50 PM 58.5°F14.7°C 48.3°F9.1°C 69% 12.7 mph SW20.4 kmh SW 15.0 mph24.1 kmh 29.68 in1005.1 mb - 0.00 in0.0 mm 0.17 in4.3 mm
08:55 PM 58.5°F14.7°C 48.3°F9.1°C 69% 10.4 mph WSW16.7 kmh WSW 15.0 mph24.1 kmh 29.68 in1005.1 mb - 0.00 in0.0 mm 0.17 in4.3 mm
09:00 PM 58.5°F14.7°C 48.3°F9.1°C 69% 13.8 mph WSW22.2 kmh WSW 17.3 mph27.8 kmh 29.68 in1005.1 mb - 0.00 in0.0 mm 0.17 in4.3 mm
09:10 PM 58.3°F14.6°C 48.2°F9.0°C 69% 11.5 mph WSW18.5 kmh WSW 18.4 mph29.6 kmh 29.65 in1004.1 mb - 0.00 in0.0 mm 0.17 in4.3 mm
09:15 PM 58.3°F14.6°C 48.2°F9.0°C 69% 13.8 mph SW22.2 kmh SW 20.7 mph33.3 kmh 29.65 in1004.1 mb - 0.00 in0.0 mm 0.17 in4.3 mm
09:20 PM 58.1°F14.5°C 48.0°F8.9°C 69% 15.0 mph W24.1 kmh W 23.0 mph37.0 kmh 29.65 in1004.1 mb - 0.00 in0.0 mm 0.17 in4.3 mm
09:25 PM 58.1°F14.5°C 48.0°F8.9°C 69% 9.2 mph WSW14.8 kmh WSW 16.1 mph25.9 kmh 29.68 in1005.1 mb - 0.00 in0.0 mm 0.17 in4.3 mm
09:30 PM 57.9°F14.4°C 47.8°F8.8°C 69% 15.0 mph SW24.1 kmh SW 23.0 mph37.0 kmh 29.68 in1005.1 mb - 0.00 in0.0 mm 0.17 in4.3 mm
09:35 PM 57.9°F14.4°C 47.8°F8.8°C 69% 13.8 mph WSW22.2 kmh WSW 16.1 mph25.9 kmh 29.68 in1005.1 mb - 0.00 in0.0 mm 0.17 in4.3 mm
09:40 PM 57.9°F14.4°C 47.8°F8.8°C 69% 11.5 mph SW18.5 kmh SW 15.0 mph24.1 kmh 29.68 in1005.1 mb - 0.00 in0.0 mm 0.17 in4.3 mm
09:45 PM 57.9°F14.4°C 47.8°F8.8°C 69% 9.2 mph WSW14.8 kmh WSW 12.7 mph20.4 kmh 29.68 in1005.1 mb - 0.00 in0.0 mm 0.17 in4.3 mm
09:50 PM 57.9°F14.4°C 47.8°F8.8°C 69% 13.8 mph SW22.2 kmh SW 23.0 mph37.0 kmh 29.68 in1005.1 mb - 0.00 in0.0 mm 0.17 in4.3 mm
09:55 PM 57.9°F14.4°C 47.8°F8.8°C 69% 9.2 mph WSW14.8 kmh WSW 10.4 mph16.7 kmh 29.68 in1005.1 mb - 0.00 in0.0 mm 0.17 in4.3 mm
10:00 PM 57.9°F14.4°C 47.8°F8.8°C 69% 8.1 mph W13.0 kmh W 9.2 mph14.8 kmh 29.68 in1005.1 mb - 0.00 in0.0 mm 0.17 in4.3 mm
10:10 PM 57.9°F14.4°C 47.8°F8.8°C 69% 11.5 mph SW18.5 kmh SW 16.1 mph25.9 kmh 29.68 in1005.1 mb - 0.00 in0.0 mm 0.17 in4.3 mm
10:15 PM 57.9°F14.4°C 47.8°F8.8°C 69% 9.2 mph SW14.8 kmh SW 16.1 mph25.9 kmh 29.68 in1005.1 mb - 0.00 in0.0 mm 0.17 in4.3 mm
10:20 PM 57.9°F14.4°C 47.8°F8.8°C 69% 8.1 mph SW13.0 kmh SW 12.7 mph20.4 kmh 29.68 in1005.1 mb - 0.00 in0.0 mm 0.17 in4.3 mm
10:25 PM 57.9°F14.4°C 47.8°F8.8°C 69% 6.9 mph SW11.1 kmh SW 12.7 mph20.4 kmh 29.68 in1005.1 mb - 0.00 in0.0 mm 0.17 in4.3 mm
10:30 PM 57.9°F14.4°C 47.8°F8.8°C 69% 9.2 mph SW14.8 kmh SW 11.5 mph18.5 kmh 29.68 in1005.1 mb - 0.00 in0.0 mm 0.17 in4.3 mm
10:35 PM 57.9°F14.4°C 47.8°F8.8°C 69% 9.2 mph SW14.8 kmh SW 11.5 mph18.5 kmh 29.68 in1005.1 mb - 0.00 in0.0 mm 0.17 in4.3 mm
10:40 PM 57.9°F14.4°C 47.8°F8.8°C 69% 8.1 mph SW13.0 kmh SW 15.0 mph24.1 kmh 29.68 in1005.1 mb - 0.00 in0.0 mm 0.17 in4.3 mm
10:45 PM 57.9°F14.4°C 47.8°F8.8°C 69% 6.9 mph SW11.1 kmh SW 10.4 mph16.7 kmh 29.68 in1005.1 mb - 0.00 in0.0 mm 0.17 in4.3 mm
10:50 PM 57.9°F14.4°C 47.8°F8.8°C 69% 6.9 mph SW11.1 kmh SW 12.7 mph20.4 kmh 29.68 in1005.1 mb - 0.00 in0.0 mm 0.17 in4.3 mm
10:55 PM 57.9°F14.4°C 47.8°F8.8°C 69% 11.5 mph SSW18.5 kmh SSW 13.8 mph22.2 kmh 29.68 in1005.1 mb - 0.00 in0.0 mm 0.17 in4.3 mm
11:00 PM 57.9°F14.4°C 47.8°F8.8°C 69% 8.1 mph SW13.0 kmh SW 10.4 mph16.7 kmh 29.68 in1005.1 mb - 0.00 in0.0 mm 1.97 in50.0 mm
11:10 PM 57.9°F14.4°C 47.4°F8.6°C 68% 6.9 mph WSW11.1 kmh WSW 9.2 mph14.8 kmh 29.68 in1005.1 mb - 0.00 in0.0 mm 1.97 in50.0 mm
11:15 PM 57.9°F14.4°C 47.4°F8.6°C 68% 6.9 mph WSW11.1 kmh WSW 11.5 mph18.5 kmh 29.68 in1005.1 mb - 0.00 in0.0 mm 1.97 in50.0 mm
11:20 PM 57.9°F14.4°C 47.4°F8.6°C 68% 10.4 mph SW16.7 kmh SW 15.0 mph24.1 kmh 29.68 in1005.1 mb - 0.00 in0.0 mm 1.97 in50.0 mm
11:25 PM 57.9°F14.4°C 47.4°F8.6°C 68% 6.9 mph SW11.1 kmh SW 8.1 mph13.0 kmh 29.65 in1004.1 mb - 0.00 in0.0 mm 1.97 in50.0 mm
11:30 PM 57.9°F14.4°C 47.4°F8.6°C 68% 8.1 mph SW13.0 kmh SW 13.8 mph22.2 kmh 29.65 in1004.1 mb - 0.00 in0.0 mm 1.97 in50.0 mm
11:35 PM 57.9°F14.4°C 47.4°F8.6°C 68% 6.9 mph SSW11.1 kmh SSW 10.4 mph16.7 kmh 29.65 in1004.1 mb - 0.00 in0.0 mm 1.97 in50.0 mm
11:40 PM 57.9°F14.4°C 47.4°F8.6°C 68% 6.9 mph SW11.1 kmh SW 10.4 mph16.7 kmh 29.68 in1005.1 mb - 0.00 in0.0 mm 1.97 in50.0 mm
11:45 PM 57.9°F14.4°C 47.4°F8.6°C 68% 9.2 mph WSW14.8 kmh WSW 10.4 mph16.7 kmh 29.68 in1005.1 mb - 0.00 in0.0 mm 1.97 in50.0 mm
11:50 PM 57.9°F14.4°C 47.4°F8.6°C 68% 6.9 mph SW11.1 kmh SW 12.7 mph20.4 kmh 29.68 in1005.1 mb - 0.00 in0.0 mm 1.97 in50.0 mm
11:55 PM 57.9°F14.4°C 47.4°F8.6°C 68% 10.4 mph SW16.7 kmh SW 12.7 mph20.4 kmh 29.68 in1005.1 mb - 0.00 in0.0 mm 1.97 in50.0 mm